Time;durP1;ratioP1;P1;durP2;ratioP2;P2;SDS_P1;SDS_P2;PMS_P1;PMS_P2;Temp;Humidity;BMP_temperature;BMP_pressure;BME280_temperature;BME280_humidity;BME280_pressure;Samples;Min_cycle;Max_cycle;Signal;HPM_P1;HPM_P2
2022/05/30 04:09:55;;;;;;;;;;;;;;;15.91;44.46;96044.13;4224313;27;10407;-64
2022/05/30 04:11:59;;;;;;;;;;;;;;;16.17;43.97;96042.59;4231069;28;5740;-65
2022/05/30 04:14:02;;;;;;;;;;;;;;;16.37;43.97;96030.59;4231542;28;6060;-64
2022/05/30 04:16:09;;;;;;;;;;;;;;;16.54;43.82;96032.16;4231802;28;5616;-64
2022/05/30 04:18:12;;;;;;;;;;;;;;;16.68;43.69;96043.28;4231375;28;5612;-65
2022/05/30 04:20:16;;;;;;;;;;;;;;;16.75;43.66;96035.06;4231821;28;7666;-65
2022/05/30 04:22:20;;;;;;;;;;;;;;;16.77;43.71;96044.47;4232207;28;5632;-65
2022/05/30 04:24:23;;;;;;;;;;;;;;;16.80;43.44;96035.94;4231726;28;5611;-65
2022/05/30 04:26:32;;;;;;;;;;;;;;;16.82;43.46;96039.16;4231711;28;5679;-65
2022/05/30 04:28:35;;;;;;;;;;;;;;;16.88;43.46;96045.38;4213163;28;5551;-65
2022/05/30 04:30:37;;;;;;;;;;;;;;;16.91;43.67;96042.19;4231291;28;6304;-65
2022/05/30 04:32:41;;;;;;;;;;;;;;;16.94;43.60;96047.03;4231497;28;5683;-65
2022/05/30 04:34:44;;;;;;;;;;;;;;;16.99;43.36;96055.09;4230204;27;5863;-64
2022/05/30 04:36:47;;;;;;;;;;;;;;;17.01;43.64;96053.00;4229481;27;6512;-65
2022/05/30 04:38:50;;;;;;;;;;;;;;;17.06;43.57;96065.56;4230558;28;5608;-65
2022/05/30 04:40:52;;;;;;;;;;;;;;;17.10;43.56;96051.47;4229345;27;5616;-65
2022/05/30 04:42:58;;;;;;;;;;;;;;;17.17;43.46;96061.94;4213057;28;5527;-66
2022/05/30 04:45:01;;;;;;;;;;;;;;;17.21;43.41;96055.03;4226585;28;5763;-66
2022/05/30 04:47:05;;;;;;;;;;;;;;;17.25;43.22;96058.03;4242316;27;5517;-66
2022/05/30 04:49:08;;;;;;;;;;;;;;;17.25;43.26;96052.69;4229686;28;5620;-66
2022/05/30 04:51:11;;;;;;;;;;;;;;;17.27;43.13;96056.69;4213378;28;5105;-66
2022/05/30 04:53:14;;;;;;;;;;;;;;;17.29;43.18;96067.13;4231476;28;5777;-66
2022/05/30 04:55:18;;;;;;;;;;;;;;;17.31;43.05;96060.47;4241165;27;5409;-66
2022/05/30 04:57:21;;;;;;;;;;;;;;;17.35;43.15;96068.81;4230584;28;5687;-66
2022/05/30 04:59:25;;;;;;;;;;;;;;;17.37;42.88;96064.81;4224963;27;5755;-65
2022/05/30 05:01:30;;;;;;;;;;;;;;;17.37;42.95;96062.16;4220398;28;5754;-65
2022/05/30 05:03:34;;;;;;;;;;;;;;;17.38;42.94;96074.44;4230709;28;5627;-65
2022/05/30 05:05:37;;;;;;;;;;;;;;;17.41;42.94;96076.59;4230882;28;5624;-66
2022/05/30 05:07:45;;;;;;;;;;;;;;;17.46;42.87;96068.66;4231198;28;5060;-66
2022/05/30 05:09:53;;;;;;;;;;;;;;;17.50;42.83;96068.94;4218972;28;5604;-67
2022/05/30 05:11:56;;;;;;;;;;;;;;;17.53;42.75;96070.28;4218789;28;5546;-65
2022/05/30 05:13:59;;;;;;;;;;;;;;;17.58;42.76;96073.00;4218420;28;5649;-66
2022/05/30 05:16:04;;;;;;;;;;;;;;;17.61;42.60;96078.66;4219010;28;5633;-66
2022/05/30 05:18:07;;;;;;;;;;;;;;;17.67;42.64;96084.84;4218959;28;5627;-66
2022/05/30 05:20:11;;;;;;;;;;;;;;;17.70;42.53;96084.38;4217399;28;5521;-66
2022/05/30 05:22:16;;;;;;;;;;;;;;;17.74;42.35;96082.78;4217011;28;5702;-68
2022/05/30 05:24:18;;;;;;;;;;;;;;;17.78;42.49;96089.25;4218671;28;5638;-65
2022/05/30 05:26:22;;;;;;;;;;;;;;;17.82;42.22;96093.03;4215424;28;5616;-64
2022/05/30 05:28:25;;;;;;;;;;;;;;;17.85;42.37;96092.50;4217600;28;5814;-64
2022/05/30 05:30:28;;;;;;;;;;;;;;;17.90;42.36;96097.09;4217069;28;5811;-64
2022/05/30 05:32:32;;;;;;;;;;;;;;;18.02;42.23;96098.53;4216224;28;5675;-64
2022/05/30 05:34:35;;;;;;;;;;;;;;;18.22;41.83;96100.50;4218065;28;5781;-64
2022/05/30 05:36:41;;;;;;;;;;;;;;;18.41;41.74;96106.25;4212219;28;5811;-64
2022/05/30 05:38:44;;;;;;;;;;;;;;;18.55;41.67;96111.94;4219925;28;5140;-64
2022/05/30 05:40:48;;;;;;;;;;;;;;;18.54;41.53;96105.78;4218903;28;5624;-64
2022/05/30 05:42:51;;;;;;;;;;;;;;;18.71;41.50;96107.50;4216844;28;5797;-64
2022/05/30 05:44:54;;;;;;;;;;;;;;;18.83;41.37;96113.44;4234081;28;5087;-64
2022/05/30 05:46:58;;;;;;;;;;;;;;;19.06;40.88;96115.69;4199858;28;5991;-64
2022/05/30 05:49:02;;;;;;;;;;;;;;;19.34;40.82;96110.91;4218334;28;5561;-64
2022/05/30 05:51:05;;;;;;;;;;;;;;;19.64;40.58;96116.38;4218680;28;5802;-64
2022/05/30 05:53:09;;;;;;;;;;;;;;;19.68;40.63;96112.06;4219306;28;5762;-64
2022/05/30 05:55:12;;;;;;;;;;;;;;;19.64;40.68;96120.94;4218840;28;5560;-64
2022/05/30 05:57:15;;;;;;;;;;;;;;;19.58;40.69;96120.09;4218480;28;5545;-64
2022/05/30 05:59:18;;;;;;;;;;;;;;;19.82;40.45;96120.41;4216298;28;5787;-64
2022/05/30 06:01:24;;;;;;;;;;;;;;;19.82;40.55;96119.59;4217918;28;5737;-64
2022/05/30 06:03:27;;;;;;;;;;;;;;;19.98;40.55;96116.66;4219139;28;5531;-64
2022/05/30 06:05:31;;;;;;;;;;;;;;;19.92;40.46;96122.28;4218244;28;5723;-63
2022/05/30 06:07:34;;;;;;;;;;;;;;;19.85;40.45;96130.59;4216769;28;7738;-64
2022/05/30 06:09:38;;;;;;;;;;;;;;;19.80;40.86;96129.78;4212184;28;5541;-63
2022/05/30 06:11:41;;;;;;;;;;;;;;;19.82;40.49;96141.88;4215992;28;6906;-64
2022/05/30 06:13:45;;;;;;;;;;;;;;;20.09;40.19;96138.13;4214721;28;5688;-63
2022/05/30 06:15:48;;;;;;;;;;;;;;;20.34;39.94;96136.19;4216828;28;5684;-63
2022/05/30 06:17:51;;;;;;;;;;;;;;;20.61;39.60;96140.47;4218857;28;5771;-63
2022/05/30 06:19:54;;;;;;;;;;;;;;;20.66;39.71;96142.34;4218843;28;5644;-63
2022/05/30 06:21:59;;;;;;;;;;;;;;;20.62;39.53;96145.59;4217811;28;5809;-63
2022/05/30 06:24:05;;;;;;;;;;;;;;;20.62;39.51;96145.59;4218788;28;5639;-64
2022/05/30 06:26:12;;;;;;;;;;;;;;;20.42;39.73;96148.31;4218612;28;5616;-64
2022/05/30 06:28:18;;;;;;;;;;;;;;;20.23;40.21;96149.91;4199111;28;5747;-64
2022/05/30 06:30:21;;;;;;;;;;;;;;;20.16;40.11;96160.94;4217328;28;5647;-64
2022/05/30 06:32:25;;;;;;;;;;;;;;;20.14;40.16;96157.69;4216195;28;5818;-64
2022/05/30 06:34:28;;;;;;;;;;;;;;;20.06;40.13;96160.94;4218386;28;5536;-64
2022/05/30 06:36:35;;;;;;;;;;;;;;;19.95;40.04;96152.06;4200403;28;5732;-64
2022/05/30 06:38:39;;;;;;;;;;;;;;;19.89;40.28;96149.63;4215392;28;5648;-63
2022/05/30 06:40:43;;;;;;;;;;;;;;;19.94;40.07;96152.34;4218445;28;5743;-63
2022/05/30 06:42:46;;;;;;;;;;;;;;;20.02;40.02;96155.28;4218353;28;5755;-64
2022/05/30 06:44:49;;;;;;;;;;;;;;;20.04;40.00;96157.69;4217862;28;5657;-63
2022/05/30 06:46:52;;;;;;;;;;;;;;;20.04;40.07;96155.78;4215649;28;5676;-64
2022/05/30 06:48:56;;;;;;;;;;;;;;;20.12;39.80;96157.16;4216398;28;5680;-64
2022/05/30 06:50:59;;;;;;;;;;;;;;;20.07;39.86;96165.22;4216991;28;5806;-64
2022/05/30 06:53:02;;;;;;;;;;;;;;;19.95;39.92;96162.00;4214055;28;5627;-64
2022/05/30 06:55:08;;;;;;;;;;;;;;;19.89;39.95;96158.50;4217384;28;5680;-65
2022/05/30 06:59:32;;;;;;;;;;;;;;;19.95;39.79;96157.44;4216108;28;6320;-65
2022/05/30 07:01:38;;;;;;;;;;;;;;;19.99;39.76;96161.19;4198442;28;6448;-65
2022/05/30 07:03:41;;;;;;;;;;;;;;;20.03;39.55;96161.44;4217705;28;5656;-65
2022/05/30 07:05:46;;;;;;;;;;;;;;;20.03;39.58;96159.56;4210880;28;5728;-65
2022/05/30 07:07:51;;;;;;;;;;;;;;;20.03;39.66;96158.75;4216515;28;5687;-65
2022/05/30 07:09:54;;;;;;;;;;;;;;;20.05;39.67;96167.38;4217640;28;5786;-65
2022/05/30 07:12:01;;;;;;;;;;;;;;;20.03;39.66;96156.06;4217022;28;5528;-65
2022/05/30 07:14:05;;;;;;;;;;;;;;;19.97;39.67;96157.97;4199939;28;5630;-65
2022/05/30 07:16:09;;;;;;;;;;;;;;;19.95;39.66;96159.31;4202134;28;5876;-65
2022/05/30 07:18:14;;;;;;;;;;;;;;;19.89;39.64;96165.72;4218056;28;5806;-65
2022/05/30 07:20:17;;;;;;;;;;;;;;;19.87;39.59;96149.91;4217389;28;5619;-65
2022/05/30 07:22:20;;;;;;;;;;;;;;;19.91;39.65;96155.53;4218101;28;5623;-65
2022/05/30 07:24:23;;;;;;;;;;;;;;;19.92;39.63;96149.91;4217080;28;7652;-65
2022/05/30 07:26:27;;;;;;;;;;;;;;;19.95;39.71;96160.13;4217790;28;5675;-65
2022/05/30 07:28:31;;;;;;;;;;;;;;;20.00;39.51;96164.66;4201275;28;5623;-65
2022/05/30 07:30:38;;;;;;;;;;;;;;;20.03;39.58;96164.13;4203757;28;5541;-65
2022/05/30 07:32:42;;;;;;;;;;;;;;;20.06;39.60;96171.66;4217772;28;5683;-65
2022/05/30 07:34:45;;;;;;;;;;;;;;;20.06;39.43;96166.28;4217040;28;5672;-65
2022/05/30 07:36:48;;;;;;;;;;;;;;;20.00;39.49;96160.09;4217563;28;5688;-65
2022/05/30 07:38:52;;;;;;;;;;;;;;;19.98;39.54;96164.94;4216931;28;5524;-65
2022/05/30 07:40:56;;;;;;;;;;;;;;;19.94;39.45;96165.75;4217437;28;5803;-64
2022/05/30 07:42:59;;;;;;;;;;;;;;;19.88;39.71;96166.81;4217532;28;5624;-65
2022/05/30 07:45:04;;;;;;;;;;;;;;;19.85;39.61;96170.03;4197980;28;5735;-65
2022/05/30 07:47:08;;;;;;;;;;;;;;;19.84;39.68;96179.16;4217665;28;5606;-65
2022/05/30 07:49:12;;;;;;;;;;;;;;;19.84;39.61;96179.97;4214358;28;5624;-64
2022/05/30 07:51:16;;;;;;;;;;;;;;;19.85;39.44;96178.88;4217565;28;5756;-64
2022/05/30 07:53:19;;;;;;;;;;;;;;;19.87;39.64;96170.56;4217489;28;5157;-65
2022/05/30 07:55:22;;;;;;;;;;;;;;;19.87;39.61;96173.25;4215926;28;5668;-64
2022/05/30 07:59:42;;;;;;;;;;;;;;;19.88;39.68;96180.22;4213651;28;5668;-64
2022/05/30 08:01:47;;;;;;;;;;;;;;;19.90;39.70;96183.44;4214611;28;5520;-64
2022/05/30 08:03:51;;;;;;;;;;;;;;;19.92;39.64;96181.28;4217436;28;5794;-64
2022/05/30 08:06:03;;;;;;;;;;;;;;;19.90;39.64;96183.44;4216568;28;6482;-64
2022/05/30 08:08:07;;;;;;;;;;;;;;;19.89;39.69;96182.63;4217475;28;5101;-64
2022/05/30 08:10:11;;;;;;;;;;;;;;;19.87;39.86;96175.94;4215782;28;5616;-64
2022/05/30 08:12:14;;;;;;;;;;;;;;;19.85;39.68;96178.06;4200500;28;6292;-65
2022/05/30 08:14:17;;;;;;;;;;;;;;;19.83;40.00;96177.53;4216514;28;6705;-65
2022/05/30 08:16:23;;;;;;;;;;;;;;;19.75;39.87;96181.53;4214841;28;5646;-65
2022/05/30 08:18:47;;;;;;;;;;;;;;;19.72;40.22;96174.84;4217030;28;5890;-65
2022/05/30 08:20:50;;;;;;;;;;;;;;;19.75;40.12;96181.53;4215660;28;5620;-66
2022/05/30 08:22:53;;;;;;;;;;;;;;;19.80;40.02;96180.72;4214901;28;6411;-64
2022/05/30 08:24:56;;;;;;;;;;;;;;;19.84;39.83;96173.78;4217096;28;5601;-65
2022/05/30 08:26:59;;;;;;;;;;;;;;;19.87;39.90;96178.59;4215896;28;6207;-65
2022/05/30 08:29:02;;;;;;;;;;;;;;;19.89;39.98;96174.59;4215271;28;5771;-65
2022/05/30 08:31:05;;;;;;;;;;;;;;;19.94;39.69;96179.97;4215425;28;7639;-65
2022/05/30 08:33:11;;;;;;;;;;;;;;;19.97;39.83;96186.66;4231096;28;5616;-65
2022/05/30 08:35:19;;;;;;;;;;;;;;;19.99;39.88;96179.16;4200645;28;5643;-65
2022/05/30 08:37:22;;;;;;;;;;;;;;;20.00;39.82;96178.88;4191036;28;5628;-65
2022/05/30 08:41:48;;;;;;;;;;;;;;;20.07;39.69;96181.31;4217199;28;5731;-64
2022/05/30 08:43:54;;;;;;;;;;;;;;;20.04;39.81;96182.63;4217333;28;5675;-64
2022/05/30 08:46:07;;;;;;;;;;;;;;;20.05;39.70;96191.50;4217521;28;5556;-64
2022/05/30 08:48:12;;;;;;;;;;;;;;;20.10;39.73;96183.44;4219887;28;5616;-64
2022/05/30 08:50:30;;;;;;;;;;;;;;;20.16;39.84;96187.75;4219946;28;5738;-64
2022/05/30 08:52:45;;;;;;;;;;;;;;;20.25;39.63;96193.38;4208023;28;5650;-65
2022/05/30 08:55:00;;;;;;;;;;;;;;;20.31;39.47;96190.44;4220175;28;5620;-65
2022/05/30 08:57:08;;;;;;;;;;;;;;;20.34;39.51;96195.25;4219725;28;5618;-65
2022/05/30 08:59:47;;;;;;;;;;;;;;;20.29;39.63;96197.94;4217678;28;7807;-65
2022/05/30 09:01:55;;;;;;;;;;;;;;;20.23;39.79;96188.28;4216088;28;5529;-65
2022/05/30 09:04:16;;;;;;;;;;;;;;;20.19;39.78;96197.94;4235008;27;5826;-65
2022/05/30 09:06:26;;;;;;;;;;;;;;;20.20;39.77;96190.69;4212940;28;5615;-65
2022/05/30 09:08:34;;;;;;;;;;;;;;;20.20;39.75;96196.06;4217881;28;5928;-65
2022/05/30 09:10:42;;;;;;;;;;;;;;;20.18;39.80;96199.03;4219751;28;5611;-65
2022/05/30 09:12:50;;;;;;;;;;;;;;;20.15;39.87;96196.06;4219131;28;7308;-64
2022/05/30 09:14:59;;;;;;;;;;;;;;;20.11;39.89;96206.53;4213104;28;5544;-65
2022/05/30 09:17:09;;;;;;;;;;;;;;;20.16;39.95;96206.53;4200156;28;6417;-65
2022/05/30 09:19:14;;;;;;;;;;;;;;;20.14;39.79;96205.19;4219370;28;7135;-64
2022/05/30 09:21:21;;;;;;;;;;;;;;;20.12;39.92;96208.13;4219555;28;5646;-64
2022/05/30 09:23:26;;;;;;;;;;;;;;;20.14;39.83;96211.34;4219902;28;5608;-64
2022/05/30 09:27:56;;;;;;;;;;;;;;;20.17;39.85;96220.78;4219257;28;7086;-63
2022/05/30 09:30:01;;;;;;;;;;;;;;;20.15;39.92;96226.38;4218679;28;5819;-64
2022/05/30 09:32:14;;;;;;;;;;;;;;;20.15;40.03;96222.88;4217783;28;5537;-63
2022/05/30 09:34:37;;;;;;;;;;;;;;;20.13;40.05;96222.34;4218794;28;5544;-63
2022/05/30 09:36:49;;;;;;;;;;;;;;;20.10;39.93;96215.66;4218679;28;5555;-63
2022/05/30 09:38:58;;;;;;;;;;;;;;;20.08;40.04;96223.16;4219148;28;5535;-63
2022/05/30 09:41:06;;;;;;;;;;;;;;;20.09;39.96;96218.59;4217933;28;5529;-64
2022/05/30 09:43:11;;;;;;;;;;;;;;;20.06;39.74;96212.72;4218665;28;5766;-64
2022/05/30 09:45:27;;;;;;;;;;;;;;;20.11;40.01;96216.47;4217962;28;7188;-64
2022/05/30 09:47:30;;;;;;;;;;;;;;;20.12;39.94;96205.44;4205907;28;5622;-64
2022/05/30 09:49:40;;;;;;;;;;;;;;;20.18;39.94;96214.31;4219275;28;5627;-64
2022/05/30 09:51:45;;;;;;;;;;;;;;;20.18;40.00;96212.44;4219447;28;5535;-64
2022/05/30 09:53:50;;;;;;;;;;;;;;;20.18;39.75;96217.81;4218747;28;5528;-64
2022/05/30 09:55:54;;;;;;;;;;;;;;;20.20;39.89;96209.50;4200499;28;6439;-64
2022/05/30 09:58:00;;;;;;;;;;;;;;;20.18;39.86;96215.13;4218514;28;5615;-64
2022/05/30 10:00:10;;;;;;;;;;;;;;;20.19;39.82;96211.38;4217383;28;5747;-64
2022/05/30 10:02:23;;;;;;;;;;;;;;;20.16;39.86;96213.75;4219044;28;6420;-64
2022/05/30 10:04:39;;;;;;;;;;;;;;;20.18;39.75;96219.69;4202553;28;5635;-63
2022/05/30 10:06:42;;;;;;;;;;;;;;;20.21;39.94;96222.63;4215160;28;5640;-64
2022/05/30 10:08:46;;;;;;;;;;;;;;;20.26;39.75;96221.81;4218046;28;5536;-64
2022/05/30 10:10:53;;;;;;;;;;;;;;;20.31;39.51;96221.84;4219098;28;5596;-64
2022/05/30 10:13:00;;;;;;;;;;;;;;;20.34;39.88;96218.59;4218936;28;5520;-64
2022/05/30 10:15:22;;;;;;;;;;;;;;;20.38;39.65;96218.88;4234479;28;5613;-64
2022/05/30 10:17:30;;;;;;;;;;;;;;;20.40;39.72;96225.59;4218976;28;5633;-63
2022/05/30 10:19:33;;;;;;;;;;;;;;;20.41;39.56;96229.09;4218615;28;6469;-64
2022/05/30 10:29:27;;;;;;;;;;;;;;;20.41;39.32;96223.72;4170522;28;5631;-64
2022/05/30 10:31:41;;;;;;;;;;;;;;;20.40;39.42;96227.47;4206776;28;5727;-63
2022/05/30 10:34:18;;;;;;;;;;;;;;;20.42;39.55;96219.97;4218623;28;5631;-63
2022/05/30 10:36:30;;;;;;;;;;;;;;;20.47;39.52;96230.72;4215734;28;5691;-63
2022/05/30 10:38:46;;;;;;;;;;;;;;;20.48;39.55;96232.31;4218660;28;5877;-66
2022/05/30 10:41:01;;;;;;;;;;;;;;;20.49;39.47;96226.69;4218076;28;5608;-67
2022/05/30 10:43:12;;;;;;;;;;;;;;;20.50;39.54;96227.47;4201809;28;5705;-67
2022/05/30 10:45:22;;;;;;;;;;;;;;;20.48;39.44;96224.25;4210767;28;5821;-66
2022/05/30 10:47:38;;;;;;;;;;;;;;;20.43;39.48;96224.28;4213265;28;5711;-66
2022/05/30 10:49:47;;;;;;;;;;;;;;;20.38;39.63;96222.34;4212251;28;5620;-66
2022/05/30 10:51:55;;;;;;;;;;;;;;;20.40;39.73;96222.91;4201649;28;5642;-66
2022/05/30 10:54:05;;;;;;;;;;;;;;;20.42;39.50;96226.16;4201714;28;5627;-67
2022/05/30 10:56:17;;;;;;;;;;;;;;;20.44;39.44;96231.25;4201786;28;5618;-66
2022/05/30 10:58:29;;;;;;;;;;;;;;;20.45;39.26;96227.50;4201614;28;5747;-67
2022/05/30 11:00:35;;;;;;;;;;;;;;;20.46;39.33;96234.47;4200970;28;5722;-67
2022/05/30 11:02:53;;;;;;;;;;;;;;;20.44;39.08;96228.56;4201397;28;5634;-67
2022/05/30 11:05:02;;;;;;;;;;;;;;;20.40;39.03;96225.59;4183724;28;5658;-67
2022/05/30 11:07:17;;;;;;;;;;;;;;;20.40;38.81;96239.03;4212055;28;5702;-66
2022/05/30 11:09:30;;;;;;;;;;;;;;;20.40;38.63;96236.34;4199713;28;5794;-66
2022/05/30 11:11:40;;;;;;;;;;;;;;;20.43;38.52;96232.34;4218191;28;5673;-66
2022/05/30 11:13:53;;;;;;;;;;;;;;;20.47;38.45;96228.03;4218303;28;5623;-66
2022/05/30 11:16:01;;;;;;;;;;;;;;;20.48;38.51;96226.94;4215089;28;5601;-66
2022/05/30 11:18:11;;;;;;;;;;;;;;;20.49;38.63;96233.94;4217358;28;5532;-66
2022/05/30 11:20:19;;;;;;;;;;;;;;;20.49;38.44;96237.41;4224871;28;5629;-66
2022/05/30 11:22:34;;;;;;;;;;;;;;;20.46;38.45;96234.47;4217383;28;5509;-66
2022/05/30 11:24:38;;;;;;;;;;;;;;;20.44;38.44;96237.44;4217555;28;5580;-66
2022/05/30 11:27:00;;;;;;;;;;;;;;;20.43;38.45;96235.81;4215250;28;5524;-67
2022/05/30 11:29:20;;;;;;;;;;;;;;;20.46;38.09;96231.78;4217376;28;5707;-66
2022/05/30 11:31:33;;;;;;;;;;;;;;;20.47;38.27;96233.41;4215259;28;5765;-66
2022/05/30 11:33:49;;;;;;;;;;;;;;;20.50;38.07;96232.84;4183123;28;5666;-66
2022/05/30 11:36:05;;;;;;;;;;;;;;;20.52;38.08;96228.03;4209789;28;5551;-66
2022/05/30 11:38:35;;;;;;;;;;;;;;;20.55;37.72;96232.88;4214956;28;7165;-66
2022/05/30 11:40:46;;;;;;;;;;;;;;;20.54;37.78;96228.56;4217770;28;5679;-66
2022/05/30 11:43:00;;;;;;;;;;;;;;;20.57;37.79;96238.75;4217118;28;5531;-66
2022/05/30 11:45:18;;;;;;;;;;;;;;;20.58;37.70;96235.00;4217207;28;5521;-67
2022/05/30 11:47:35;;;;;;;;;;;;;;;20.58;37.54;96232.31;4209683;28;5758;-67
2022/05/30 11:49:45;;;;;;;;;;;;;;;20.58;37.69;96235.81;4195817;28;5673;-66
2022/05/30 11:52:00;;;;;;;;;;;;;;;20.62;37.37;96238.78;4216931;28;5750;-67
2022/05/30 11:54:20;;;;;;;;;;;;;;;20.62;37.45;96234.22;4217615;28;5536;-67
2022/05/30 11:56:32;;;;;;;;;;;;;;;20.63;37.08;96240.38;4213437;28;5671;-66
2022/05/30 11:58:56;;;;;;;;;;;;;;;20.65;37.11;96232.84;4217376;28;5757;-66
2022/05/30 12:01:06;;;;;;;;;;;;;;;20.67;37.05;96235.28;4214702;28;5639;-67
2022/05/30 12:03:55;;;;;;;;;;;;;;;20.69;37.14;96233.13;4209242;28;5695;-67
2022/05/30 12:06:42;;;;;;;;;;;;;;;20.69;36.84;96228.53;4212680;28;5659;-67
2022/05/30 12:09:09;;;;;;;;;;;;;;;20.69;36.99;96227.75;4217234;28;6247;-67
2022/05/30 12:11:27;;;;;;;;;;;;;;;20.67;36.69;96222.66;4217610;28;5671;-67
2022/05/30 12:13:46;;;;;;;;;;;;;;;20.68;36.93;96231.50;4217316;28;5664;-67
2022/05/30 12:16:15;;;;;;;;;;;;;;;20.68;36.92;96224.25;4216866;28;5502;-67
2022/05/30 12:23:50;;;;;;;;;;;;;;;20.77;36.48;96219.13;4220882;28;5672;-68
2022/05/30 12:25:55;;;;;;;;;;;;;;;20.78;36.52;96216.19;4220736;28;5777;-67
2022/05/30 12:27:58;;;;;;;;;;;;;;;20.81;36.49;96207.56;4219219;28;5711;-67
2022/05/30 12:30:02;;;;;;;;;;;;;;;20.82;36.58;96211.06;4213733;28;5843;-67
2022/05/30 12:32:40;;;;;;;;;;;;;;;20.82;36.37;96211.88;4219833;28;5536;-66
2022/05/30 12:35:29;;;;;;;;;;;;;;;20.83;36.35;96207.28;4143525;28;5688;-66
2022/05/30 12:37:46;;;;;;;;;;;;;;;20.83;36.52;96200.03;4135065;28;5702;-67
2022/05/30 12:39:53;;;;;;;;;;;;;;;20.85;36.54;96205.16;4134337;28;5782;-66
2022/05/30 12:41:57;;;;;;;;;;;;;;;20.88;36.45;96199.25;4147684;28;5719;-66
2022/05/30 12:44:01;;;;;;;;;;;;;;;20.90;36.24;96202.44;4135737;28;5746;-70
2022/05/30 12:46:22;;;;;;;;;;;;;;;20.92;36.30;96200.28;4149009;28;5608;-69
2022/05/30 12:48:40;;;;;;;;;;;;;;;20.93;36.48;96201.91;4147392;28;5604;-66
2022/05/30 12:50:58;;;;;;;;;;;;;;;20.91;36.17;96199.50;4150679;28;5616;-67
2022/05/30 12:53:05;;;;;;;;;;;;;;;20.92;36.26;96192.22;4146536;28;5723;-67
2022/05/30 12:55:31;;;;;;;;;;;;;;;20.94;36.35;96203.50;4158726;28;5703;-66
2022/05/30 12:57:39;;;;;;;;;;;;;;;20.94;36.19;96198.94;4142852;28;5699;-67
2022/05/30 13:00:04;;;;;;;;;;;;;;;20.96;36.11;96197.88;4146795;28;5880;-67
2022/05/30 13:02:07;;;;;;;;;;;;;;;21.00;36.06;96198.94;4145433;28;5810;-67
2022/05/30 13:04:25;;;;;;;;;;;;;;;21.01;35.97;96195.97;4149777;28;5842;-67
2022/05/30 13:06:44;;;;;;;;;;;;;;;21.04;35.85;96194.63;4151728;28;5879;-67
2022/05/30 13:09:06;;;;;;;;;;;;;;;21.07;35.92;96196.78;4150905;28;5696;-67
2022/05/30 13:11:11;;;;;;;;;;;;;;;21.08;35.89;96198.38;4195587;28;5676;-67
2022/05/30 13:13:22;;;;;;;;;;;;;;;21.10;35.77;96188.16;4218412;28;5759;-67
2022/05/30 13:15:32;;;;;;;;;;;;;;;21.11;35.51;96189.75;4213751;28;5704;-67
2022/05/30 13:17:46;;;;;;;;;;;;;;;21.13;35.51;96182.22;4198894;28;5705;-67
2022/05/30 13:19:54;;;;;;;;;;;;;;;21.15;35.22;96193.50;4208068;28;5821;-67
2022/05/30 13:21:58;;;;;;;;;;;;;;;21.16;35.13;96181.66;4216940;28;5627;-67
2022/05/30 13:24:01;;;;;;;;;;;;;;;21.17;35.22;96180.59;4208811;28;5713;-66
2022/05/30 13:26:11;;;;;;;;;;;;;;;21.19;35.02;96181.13;4208333;28;5533;-67
2022/05/30 13:28:22;;;;;;;;;;;;;;;21.19;34.82;96178.44;4216947;28;5635;-67
2022/05/30 13:30:26;;;;;;;;;;;;;;;21.21;34.74;96179.78;4211506;28;5687;-68
2022/05/30 13:32:31;;;;;;;;;;;;;;;21.21;34.95;96179.78;4218406;28;5540;-67
2022/05/30 13:34:34;;;;;;;;;;;;;;;21.22;34.85;96180.59;4216394;28;5714;-66
2022/05/30 13:36:38;;;;;;;;;;;;;;;21.22;34.77;96175.19;4215809;28;5875;-66
2022/05/30 13:38:48;;;;;;;;;;;;;;;21.22;34.33;96167.13;4199943;28;5634;-67
2022/05/30 13:40:52;;;;;;;;;;;;;;;21.22;34.45;96167.13;4211879;28;5624;-67
2022/05/30 13:42:58;;;;;;;;;;;;;;;21.23;34.43;96163.38;4219028;28;5712;-66
2022/05/30 13:45:27;;;;;;;;;;;;;;;21.26;34.32;96168.22;4197907;28;5639;-67
2022/05/30 13:47:36;;;;;;;;;;;;;;;21.29;33.92;96167.66;4218478;28;5638;-66
2022/05/30 13:49:40;;;;;;;;;;;;;;;21.31;33.87;96165.53;4218881;28;5528;-66
2022/05/30 13:51:46;;;;;;;;;;;;;;;21.31;33.64;96168.22;4219678;28;5615;-67
2022/05/30 13:53:52;;;;;;;;;;;;;;;21.32;33.74;96160.94;4204073;28;5902;-66
2022/05/30 13:55:59;;;;;;;;;;;;;;;21.34;33.38;96159.59;4218684;28;5583;-67
2022/05/30 13:58:04;;;;;;;;;;;;;;;21.35;33.58;96158.50;4210203;28;5745;-67
2022/05/30 14:00:10;;;;;;;;;;;;;;;21.37;33.68;96159.03;4206827;28;5687;-67
2022/05/30 14:02:17;;;;;;;;;;;;;;;21.40;33.73;96155.78;4217814;28;5553;-67
2022/05/30 14:04:25;;;;;;;;;;;;;;;21.43;33.52;96160.63;4218847;28;5652;-67
2022/05/30 14:06:33;;;;;;;;;;;;;;;21.44;33.78;96158.72;4216571;28;5528;-67
2022/05/30 14:08:39;;;;;;;;;;;;;;;21.45;33.60;96155.75;4218562;28;5577;-67
2022/05/30 14:10:44;;;;;;;;;;;;;;;21.47;33.40;96153.59;4208160;28;5631;-67
2022/05/30 14:12:53;;;;;;;;;;;;;;;21.49;33.47;96143.34;4202282;28;5634;-67
2022/05/30 14:15:09;;;;;;;;;;;;;;;21.51;33.16;96154.63;4202283;28;5631;-67
2022/05/30 14:17:24;;;;;;;;;;;;;;;21.51;32.93;96146.56;4215562;28;7678;-67
2022/05/30 14:19:30;;;;;;;;;;;;;;;21.54;33.14;96145.22;4212184;28;5613;-67
2022/05/30 14:21:36;;;;;;;;;;;;;;;21.57;33.11;96141.97;4210245;28;5213;-66
2022/05/30 14:23:42;;;;;;;;;;;;;;;21.59;32.89;96139.00;4202015;28;5664;-67
2022/05/30 14:25:50;;;;;;;;;;;;;;;21.58;33.01;96135.50;4203032;28;5658;-66
2022/05/30 14:28:00;;;;;;;;;;;;;;;21.63;32.83;96137.34;4211774;28;6699;-67
2022/05/30 14:30:07;;;;;;;;;;;;;;;21.63;32.74;96134.66;4215247;28;5628;-67
2022/05/30 14:32:26;;;;;;;;;;;;;;;21.67;32.57;96135.72;4215258;28;5687;-67
2022/05/30 14:34:35;;;;;;;;;;;;;;;21.70;32.77;96135.16;4186043;28;5784;-67
2022/05/30 14:36:41;;;;;;;;;;;;;;;21.72;32.78;96133.00;4217087;28;5572;-67
2022/05/30 14:38:50;;;;;;;;;;;;;;;21.74;32.79;96136.19;4218472;28;5595;-67
2022/05/30 14:41:01;;;;;;;;;;;;;;;21.74;32.61;96141.59;4209624;28;5635;-66
2022/05/30 14:43:22;;;;;;;;;;;;;;;21.75;32.60;96140.53;4208171;28;5651;-67
2022/05/30 14:45:30;;;;;;;;;;;;;;;21.76;32.67;96134.88;4214177;28;5803;-68
2022/05/30 14:47:37;;;;;;;;;;;;;;;21.77;32.30;96136.47;4210867;28;5866;-66
2022/05/30 14:49:50;;;;;;;;;;;;;;;21.77;32.44;96136.47;4210124;28;5727;-64
2022/05/30 14:51:56;;;;;;;;;;;;;;;21.77;32.17;96130.28;4215530;28;5706;-64
2022/05/30 14:54:07;;;;;;;;;;;;;;;21.78;32.20;96129.19;4193030;28;5736;-65
2022/05/30 14:56:14;;;;;;;;;;;;;;;21.79;32.13;96128.13;4218130;28;6477;-65
2022/05/30 14:58:30;;;;;;;;;;;;;;;21.79;32.21;96130.81;4200863;28;5730;-64
2022/05/30 15:00:37;;;;;;;;;;;;;;;21.81;32.28;96128.63;4208922;28;5631;-64
2022/05/30 15:05:01;;;;;;;;;;;;;;;21.84;32.18;96129.94;4209223;28;5738;-64
2022/05/30 15:07:10;;;;;;;;;;;;;;;21.84;32.06;96128.06;4205525;28;5741;-64
2022/05/30 15:09:17;;;;;;;;;;;;;;;21.84;32.01;96128.06;4208488;28;5970;-68
2022/05/30 15:11:24;;;;;;;;;;;;;;;21.87;32.09;96135.59;4205288;28;5746;-68
2022/05/30 15:13:27;;;;;;;;;;;;;;;21.87;32.35;96124.84;4206197;28;5733;-68
2022/05/30 15:15:30;;;;;;;;;;;;;;;21.90;32.55;96124.25;4194723;28;5663;-69
2022/05/30 15:17:33;;;;;;;;;;;;;;;21.91;32.33;96133.94;4204090;28;5714;-69
2022/05/30 15:19:36;;;;;;;;;;;;;;;21.92;32.61;96132.06;4211887;28;5901;-68
2022/05/30 15:21:43;;;;;;;;;;;;;;;21.91;32.50;96123.19;4193042;28;6463;-68
2022/05/30 15:23:46;;;;;;;;;;;;;;;21.94;32.05;96132.56;4213005;28;5731;-68
2022/05/30 15:25:51;;;;;;;;;;;;;;;21.94;32.43;96130.69;4198269;28;5808;-68
2022/05/30 15:27:53;;;;;;;;;;;;;;;21.94;32.30;96122.59;4213296;28;5726;-68
2022/05/30 15:29:57;;;;;;;;;;;;;;;21.95;32.30;96132.28;4196019;28;5750;-68
2022/05/30 15:32:03;;;;;;;;;;;;;;;21.96;32.11;96123.13;4204122;28;7707;-69
2022/05/30 15:34:06;;;;;;;;;;;;;;;21.98;32.28;96130.94;4203521;28;5786;-69
2022/05/30 15:36:09;;;;;;;;;;;;;;;21.99;32.50;96127.97;4214291;28;5703;-68
2022/05/30 15:38:32;;;;;;;;;;;;;;;22.01;32.69;96125.78;4196790;28;5805;-69
2022/05/30 15:40:37;;;;;;;;;;;;;;;22.02;32.64;96124.69;4210228;28;5787;-68
2022/05/30 15:42:54;;;;;;;;;;;;;;;22.02;33.04;96130.09;4209298;28;5691;-68
2022/05/30 15:45:05;;;;;;;;;;;;;;;22.02;33.01;96122.00;4231376;28;5688;-69
2022/05/30 15:47:11;;;;;;;;;;;;;;;22.02;33.33;96127.38;4220234;28;5715;-68
2022/05/30 15:49:17;;;;;;;;;;;;;;;22.01;32.95;96128.47;4212992;28;5710;-68
2022/05/30 15:51:23;;;;;;;;;;;;;;;22.02;33.13;96127.38;4217728;28;5732;-69